Time;durP1;ratioP1;P1;durP2;ratioP2;P2;SDS_P1;SDS_P2;PMS_P1;PMS_P2;Temp;Humidity;BMP_temperature;BMP_pressure;BME280_temperature;BME280_humidity;BME280_pressure;Samples;Min_cycle;Max_cycle;Signal;HPM_P1;HPM_P2
2023/07/13 00:01:27;;;;;;;6.45;1.65;;;;;;;17.32;100.00;100736.09;4927259;29;20028;-75
2023/07/13 00:03:52;;;;;;;4.97;1.77;;;;;;;17.30;100.00;100733.63;4922955;29;20074;-75
2023/07/13 00:06:19;;;;;;;6.53;2.05;;;;;;;17.24;100.00;100737.75;4921379;29;20032;-75
2023/07/13 00:08:45;;;;;;;4.88;1.50;;;;;;;17.20;100.00;100734.81;4927274;29;20043;-75
2023/07/13 00:11:11;;;;;;;4.18;1.50;;;;;;;17.17;100.00;100737.47;4954291;29;20031;-75
2023/07/13 00:13:39;;;;;;;4.28;1.55;;;;;;;17.12;100.00;100740.44;4930638;29;20051;-75
2023/07/13 00:16:04;;;;;;;4.63;1.63;;;;;;;17.10;100.00;100734.31;4954824;29;20031;-75
2023/07/13 00:18:30;;;;;;;4.40;1.75;;;;;;;17.05;100.00;100740.94;4915122;29;20042;-75
2023/07/13 00:21:04;;;;;;;5.38;1.63;;;;;;;17.02;100.00;100740.75;4933574;29;20107;-75
2023/07/13 00:23:33;;;;;;;4.68;1.50;;;;;;;17.00;100.00;100749.53;4937811;29;20034;-75
2023/07/13 00:26:00;;;;;;;4.43;1.75;;;;;;;16.96;100.00;100746.53;4914133;29;20027;-75
2023/07/13 00:28:26;;;;;;;5.63;1.88;;;;;;;16.94;100.00;100742.44;4951438;29;20067;-75
2023/07/13 00:30:51;;;;;;;6.13;1.77;;;;;;;16.89;100.00;100751.03;4925928;29;20035;-75
2023/07/13 00:33:17;;;;;;;3.42;1.70;;;;;;;16.82;100.00;100743.09;4917023;29;20469;-75
2023/07/13 00:35:43;;;;;;;7.10;1.85;;;;;;;16.82;100.00;100747.88;4928695;28;20082;-75
2023/07/13 00:38:09;;;;;;;7.47;1.80;;;;;;;16.77;100.00;100751.69;4935734;29;20392;-75
2023/07/13 00:40:35;;;;;;;4.55;1.52;;;;;;;16.73;100.00;100745.88;4926242;29;20059;-75
2023/07/13 00:43:00;;;;;;;4.75;1.90;;;;;;;16.67;100.00;100741.59;4926120;29;20079;-74
2023/07/13 00:45:26;;;;;;;4.05;1.50;;;;;;;16.69;100.00;100738.47;4926366;29;20083;-75
2023/07/13 00:47:51;;;;;;;5.22;1.50;;;;;;;16.61;100.00;100736.47;4949421;29;20114;-75
2023/07/13 00:50:16;;;;;;;2.97;1.23;;;;;;;16.58;100.00;100737.97;4946764;29;20027;-75
2023/07/13 00:52:44;;;;;;;4.28;1.50;;;;;;;16.57;100.00;100736.28;4914412;29;20032;-75
2023/07/13 00:55:10;;;;;;;5.40;1.67;;;;;;;16.53;100.00;100735.31;4938418;29;20038;-75
2023/07/13 00:57:35;;;;;;;7.53;1.45;;;;;;;16.55;100.00;100738.63;4925778;29;20476;-75
2023/07/13 01:00:08;;;;;;;6.15;1.42;;;;;;;16.48;100.00;100736.28;4925835;29;20035;-75
2023/07/13 01:02:35;;;;;;;3.83;1.38;;;;;;;16.43;100.00;100730.84;4926902;29;20028;-75
2023/07/13 01:05:01;;;;;;;4.95;1.45;;;;;;;16.42;100.00;100732.00;4925680;29;20051;-75
2023/07/13 01:07:27;;;;;;;4.22;1.42;;;;;;;16.41;100.00;100735.13;4909773;29;20035;-75
2023/07/13 01:09:52;;;;;;;4.00;1.52;;;;;;;16.37;100.00;100732.16;4925592;29;20063;-75
2023/07/13 01:12:18;;;;;;;3.03;1.50;;;;;;;16.37;100.00;100734.97;4928191;29;20027;-75
2023/07/13 01:14:43;;;;;;;3.78;1.67;;;;;;;16.30;100.00;100731.84;4940846;29;20036;-75
2023/07/13 01:17:12;;;;;;;5.22;1.33;;;;;;;16.26;100.00;100728.84;4942446;29;20039;-75
2023/07/13 01:19:44;;;;;;;6.95;1.80;;;;;;;16.25;100.00;100724.41;4925244;29;20039;-75
2023/07/13 01:22:11;;;;;;;4.47;1.60;;;;;;;16.17;100.00;100727.19;4941345;29;20028;-75
2023/07/13 01:24:37;;;;;;;3.03;1.30;;;;;;;16.17;100.00;100721.59;4938341;29;20039;-74
2023/07/13 01:27:03;;;;;;;5.28;1.75;;;;;;;16.15;100.00;100735.91;4916686;29;20047;-75
2023/07/13 01:29:30;;;;;;;4.10;1.50;;;;;;;16.10;100.00;100741.66;4927445;29;20040;-75
2023/07/13 01:31:56;;;;;;;5.72;1.45;;;;;;;16.08;100.00;100746.78;4941032;29;20028;-75
2023/07/13 01:34:21;;;;;;;5.22;1.63;;;;;;;16.04;100.00;100751.38;4940914;29;20036;-75
2023/07/13 01:36:46;;;;;;;4.00;1.58;;;;;;;16.03;100.00;100744.13;4932340;29;20027;-75
2023/07/13 01:39:12;;;;;;;4.47;1.40;;;;;;;16.01;100.00;100746.41;4940691;29;20043;-75
2023/07/13 01:41:37;;;;;;;6.80;1.58;;;;;;;15.99;100.00;100743.13;4900726;29;20032;-75
2023/07/13 01:44:03;;;;;;;5.43;1.48;;;;;;;15.97;100.00;100748.25;4941344;29;20110;-75
2023/07/13 01:46:28;;;;;;;5.20;1.77;;;;;;;15.96;100.00;100750.19;4949973;29;20036;-75
2023/07/13 01:48:54;;;;;;;5.03;1.30;;;;;;;15.95;100.00;100742.94;4954547;29;20031;-75
2023/07/13 01:51:20;;;;;;;7.07;1.52;;;;;;;15.93;100.00;100742.44;4924943;29;20024;-75
2023/07/13 01:53:46;;;;;;;3.70;1.48;;;;;;;15.95;100.00;100742.13;4940884;29;20078;-75
2023/07/13 01:56:11;;;;;;;6.00;1.40;;;;;;;15.92;100.00;100743.59;4934393;29;20075;-75
2023/07/13 01:58:36;;;;;;;2.92;1.27;;;;;;;15.94;100.00;100746.09;4924784;29;20039;-75
2023/07/13 02:01:02;;;;;;;6.95;1.73;;;;;;;15.93;100.00;100747.22;4924440;29;20068;-75
2023/07/13 02:03:27;;;;;;;5.47;1.65;;;;;;;15.92;100.00;100748.38;4937339;29;20381;-74
2023/07/13 02:05:53;;;;;;;6.22;2.20;;;;;;;15.95;100.00;100747.72;4943703;29;20043;-75
2023/07/13 02:08:18;;;;;;;4.30;1.55;;;;;;;15.96;100.00;100746.56;4911552;29;20036;-74
2023/07/13 02:10:44;;;;;;;5.15;1.58;;;;;;;15.95;100.00;100747.72;4940077;29;20032;-75
2023/07/13 02:13:09;;;;;;;5.38;1.77;;;;;;;15.94;100.00;100741.31;4926581;29;20046;-75
2023/07/13 02:15:38;;;;;;;5.30;1.80;;;;;;;16.00;100.00;100744.78;4939975;29;20035;-74
2023/07/13 02:18:04;;;;;;;3.60;1.70;;;;;;;15.99;100.00;100745.91;4924248;29;20027;-74
2023/07/13 02:20:29;;;;;;;5.38;1.52;;;;;;;15.99;100.00;100746.75;4938989;29;20512;-74
2023/07/13 02:22:55;;;;;;;3.58;1.63;;;;;;;16.03;100.00;100742.16;4941560;29;20032;-74
2023/07/13 02:25:20;;;;;;;5.68;1.58;;;;;;;16.02;100.00;100743.31;4908724;29;20028;-74
2023/07/13 02:27:46;;;;;;;6.18;1.80;;;;;;;16.05;100.00;100736.22;4924035;29;20040;-75
2023/07/13 02:30:11;;;;;;;5.20;2.05;;;;;;;16.05;100.00;100739.03;4939842;29;20055;-75
2023/07/13 02:32:37;;;;;;;4.10;1.80;;;;;;;16.06;100.00;100735.06;4939507;29;20039;-75
2023/07/13 02:35:03;;;;;;;5.22;1.80;;;;;;;16.06;100.00;100737.88;4940361;28;20063;-75
2023/07/13 02:37:29;;;;;;;3.55;1.30;;;;;;;16.07;100.00;100739.50;4912169;29;20123;-75
2023/07/13 02:39:55;;;;;;;4.88;1.60;;;;;;;16.07;100.00;100743.16;4924441;29;20111;-75
2023/07/13 02:42:20;;;;;;;4.18;1.70;;;;;;;16.10;100.00;100738.84;4936915;29;20032;-75
2023/07/13 02:44:46;;;;;;;4.53;1.58;;;;;;;16.12;100.00;100733.75;4908031;29;20024;-75
2023/07/13 02:47:12;;;;;;;3.72;1.58;;;;;;;16.12;100.00;100730.97;4904317;29;20023;-75
2023/07/13 02:49:38;;;;;;;5.72;1.60;;;;;;;16.11;100.00;100734.94;4914267;29;20102;-75
2023/07/13 02:52:04;;;;;;;4.30;1.60;;;;;;;16.14;100.00;100739.06;4937934;29;20030;-74
2023/07/13 02:54:29;;;;;;;4.38;1.38;;;;;;;16.14;100.00;100737.06;4923723;29;20038;-75
2023/07/13 02:56:55;;;;;;;5.05;1.30;;;;;;;16.16;100.00;100737.56;4936531;29;20043;-75
2023/07/13 02:59:20;;;;;;;4.28;1.77;;;;;;;16.17;100.00;100732.78;4913365;29;20040;-74
2023/07/13 03:01:46;;;;;;;4.03;1.67;;;;;;;16.17;100.00;100736.41;4936366;29;20032;-75
2023/07/13 03:04:12;;;;;;;5.10;1.65;;;;;;;16.19;100.00;100736.94;4923674;29;20563;-75
2023/07/13 03:06:37;;;;;;;3.85;1.42;;;;;;;16.19;100.00;100731.31;4939390;29;20047;-75
2023/07/13 03:09:03;;;;;;;5.47;1.60;;;;;;;16.19;100.00;100727.69;4929710;29;20388;-75
2023/07/13 03:11:29;;;;;;;2.83;1.50;;;;;;;16.18;100.00;100724.03;4935822;29;20027;-75
2023/07/13 03:13:54;;;;;;;3.53;1.73;;;;;;;16.22;100.00;100739.06;4948641;29;20480;-75
2023/07/13 03:16:20;;;;;;;3.60;1.83;;;;;;;16.21;100.00;100731.78;4939130;29;20036;-75
2023/07/13 03:18:46;;;;;;;2.90;1.58;;;;;;;16.21;100.00;100733.78;4913601;29;20035;-75
2023/07/13 03:21:11;;;;;;;3.55;1.77;;;;;;;16.22;100.00;100741.88;4953058;29;20032;-74
2023/07/13 03:23:37;;;;;;;6.00;1.55;;;;;;;16.22;100.00;100733.47;4923439;29;20039;-75
2023/07/13 03:26:07;;;;;;;3.28;1.45;;;;;;;16.23;100.00;100731.47;4923362;29;20050;-74
2023/07/13 03:28:33;;;;;;;6.68;1.70;;;;;;;16.25;100.00;100735.59;4923888;29;20440;-74
2023/07/13 03:31:03;;;;;;;3.60;1.60;;;;;;;16.24;100.00;100735.94;4954138;28;20036;-75
2023/07/13 03:33:28;;;;;;;3.67;1.40;;;;;;;16.24;100.00;100733.97;4923658;29;20484;-74
2023/07/13 03:35:54;;;;;;;5.75;2.28;;;;;;;16.22;100.00;100733.47;4948571;28;20031;-75
2023/07/13 03:38:19;;;;;;;5.03;1.58;;;;;;;16.24;100.00;100736.78;4947159;29;20046;-74
2023/07/13 03:40:45;;;;;;;5.07;1.50;;;;;;;16.25;100.00;100738.41;4907235;29;20023;-75
2023/07/13 03:43:10;;;;;;;7.53;2.10;;;;;;;16.24;100.00;100733.13;4922989;29;20114;-75
2023/07/13 03:45:38;;;;;;;4.40;1.63;;;;;;;16.23;100.00;100737.91;4923498;29;20028;-75
2023/07/13 03:48:04;;;;;;;3.95;1.58;;;;;;;16.22;100.00;100744.66;4907407;29;20028;-75
2023/07/13 03:50:30;;;;;;;2.45;1.48;;;;;;;16.21;100.00;100745.81;4923413;29;20032;-75
2023/07/13 03:52:57;;;;;;;6.20;1.38;;;;;;;16.23;100.00;100742.69;4913234;29;20034;-75
2023/07/13 03:55:22;;;;;;;3.88;1.48;;;;;;;16.23;100.00;100749.13;4891644;29;20480;-74
2023/07/13 03:57:54;;;;;;;4.78;1.50;;;;;;;16.22;100.00;100753.06;4938779;29;20106;-75
2023/07/13 04:00:20;;;;;;;5.22;1.90;;;;;;;16.23;100.00;100745.50;4922959;29;20031;-75
2023/07/13 04:02:47;;;;;;;4.18;1.67;;;;;;;16.24;100.00;100755.53;4950380;28;20038;-75
2023/07/13 04:05:13;;;;;;;4.32;1.83;;;;;;;16.23;100.00;100754.72;4944108;29;20046;-75
2023/07/13 04:07:38;;;;;;;7.75;1.73;;;;;;;16.25;100.00;100752.44;4910234;29;20031;-75
2023/07/13 04:10:04;;;;;;;6.90;1.83;;;;;;;16.24;100.00;100762.00;4910084;29;20031;-75
2023/07/13 04:12:30;;;;;;;5.65;1.73;;;;;;;16.24;100.00;100762.00;4918228;29;20095;-75
2023/07/13 04:14:55;;;;;;;5.70;1.90;;;;;;;16.24;100.00;100770.41;4938758;29;20501;-75
2023/07/13 04:17:21;;;;;;;6.00;1.42;;;;;;;16.23;100.00;100771.53;4952713;28;20431;-74
2023/07/13 04:19:46;;;;;;;7.72;2.20;;;;;;;16.27;100.00;100766.13;4925914;29;20038;-75
2023/07/13 04:22:12;;;;;;;4.65;1.73;;;;;;;16.23;100.00;100768.72;4929087;28;20043;-75
2023/07/13 04:24:38;;;;;;;6.63;2.22;;;;;;;16.24;100.00;100772.34;4957755;28;20502;-75
2023/07/13 04:27:03;;;;;;;4.55;1.50;;;;;;;16.24;100.00;100778.81;4950023;29;20105;-75
2023/07/13 04:29:29;;;;;;;3.63;1.77;;;;;;;16.27;100.00;100780.97;4925472;29;20041;-75
2023/07/13 04:31:57;;;;;;;4.85;1.60;;;;;;;16.26;100.00;100782.09;4919286;29;20027;-75
2023/07/13 04:34:23;;;;;;;4.47;1.50;;;;;;;16.26;100.00;100781.28;4938368;29;20036;-75
2023/07/13 04:36:49;;;;;;;4.07;1.60;;;;;;;16.26;100.00;100770.88;4923701;29;20421;-74
2023/07/13 04:39:16;;;;;;;4.72;1.63;;;;;;;16.26;100.00;100772.88;4922685;29;20158;-75
2023/07/13 04:41:42;;;;;;;4.40;1.90;;;;;;;16.25;100.00;100774.84;4918673;29;20505;-75
2023/07/13 04:44:07;;;;;;;4.78;1.90;;;;;;;16.24;100.00;100772.34;4924636;29;20019;-75
2023/07/13 04:46:33;;;;;;;5.72;1.80;;;;;;;16.26;100.00;100782.09;4932256;28;20027;-75
2023/07/13 04:48:58;;;;;;;5.95;1.70;;;;;;;16.27;100.00;100778.16;4946225;28;20027;-76
2023/07/13 04:51:24;;;;;;;4.50;1.52;;;;;;;16.27;100.00;100783.75;4942708;29;20043;-76
2023/07/13 04:53:49;;;;;;;6.43;1.70;;;;;;;16.26;100.00;100786.88;4926123;29;20055;-75
2023/07/13 04:56:15;;;;;;;3.67;1.88;;;;;;;16.24;100.00;100784.41;4938857;28;20031;-75
2023/07/13 04:58:40;;;;;;;4.35;1.70;;;;;;;16.31;100.00;100789.53;4941556;29;20038;-75
2023/07/13 05:01:06;;;;;;;4.60;2.00;;;;;;;16.28;100.00;100791.00;4928789;29;20106;-75
2023/07/13 05:03:31;;;;;;;5.57;1.55;;;;;;;16.28;100.00;100777.00;4944644;29;20125;-75
2023/07/13 05:06:02;;;;;;;5.00;1.60;;;;;;;16.29;100.00;100786.22;4929077;29;20031;-75
2023/07/13 05:08:27;;;;;;;4.15;1.90;;;;;;;16.30;100.00;100791.50;4928021;29;20039;-75
2023/07/13 05:10:53;;;;;;;5.97;1.67;;;;;;;16.29;100.00;100792.66;4920296;28;20039;-75
2023/07/13 05:13:18;;;;;;;7.57;1.92;;;;;;;16.31;100.00;100797.94;4913021;29;20027;-75
2023/07/13 05:15:44;;;;;;;5.82;1.90;;;;;;;16.36;100.00;100791.38;4938991;28;20038;-75
2023/07/13 05:18:09;;;;;;;8.90;2.00;;;;;;;16.37;100.00;100798.59;4926141;29;20361;-75
2023/07/13 05:20:34;;;;;;;5.88;2.10;;;;;;;16.37;100.00;100801.41;4963634;28;20115;-75
2023/07/13 05:23:00;;;;;;;5.82;1.70;;;;;;;16.39;100.00;100805.53;4931071;29;20030;-75
2023/07/13 05:25:25;;;;;;;4.88;2.20;;;;;;;16.41;100.00;100799.59;4920299;29;20042;-75
2023/07/13 05:27:51;;;;;;;4.97;1.52;;;;;;;16.43;100.00;100797.28;4909718;29;20031;-75
2023/07/13 05:30:17;;;;;;;4.25;1.80;;;;;;;16.45;100.00;100800.59;4935802;29;20506;-75
2023/07/13 05:32:42;;;;;;;5.15;1.83;;;;;;;16.46;100.00;100802.25;4948487;28;20065;-75
2023/07/13 05:35:08;;;;;;;8.98;2.50;;;;;;;16.45;100.00;100800.59;4930648;28;20027;-75
2023/07/13 05:37:34;;;;;;;5.63;1.80;;;;;;;16.50;100.00;100808.88;4944900;29;20043;-75
2023/07/13 05:39:59;;;;;;;6.68;1.92;;;;;;;16.50;100.00;100809.69;4928358;29;20484;-75
2023/07/13 05:42:24;;;;;;;6.68;1.60;;;;;;;16.54;100.00;100813.47;4912620;29;20032;-75
2023/07/13 05:44:50;;;;;;;5.93;2.00;;;;;;;16.60;100.00;100816.13;4912101;29;20031;-75
2023/07/13 05:47:15;;;;;;;7.38;2.05;;;;;;;16.59;100.00;100823.72;4966091;28;20546;-75
2023/07/13 05:49:41;;;;;;;3.85;1.65;;;;;;;16.63;100.00;100826.69;4949896;29;20035;-75
2023/07/13 05:52:07;;;;;;;3.00;1.50;;;;;;;16.65;100.00;100828.00;4956581;28;20039;-75
2023/07/13 05:54:32;;;;;;;7.15;1.90;;;;;;;16.66;100.00;100826.88;4959990;28;20031;-74
2023/07/13 05:56:58;;;;;;;5.55;1.88;;;;;;;16.70;100.00;100829.84;4943677;28;20496;-75
2023/07/13 05:59:23;;;;;;;6.85;1.88;;;;;;;16.72;100.00;100835.97;4926784;29;20043;-75
2023/07/13 06:01:49;;;;;;;3.45;1.70;;;;;;;16.74;100.00;100839.25;4911288;28;20035;-75
2023/07/13 06:04:15;;;;;;;5.30;2.13;;;;;;;16.74;100.00;100840.09;4943358;29;20053;-75
2023/07/13 06:06:40;;;;;;;5.45;1.40;;;;;;;16.79;100.00;100849.50;4960075;28;20102;-75
2023/07/13 06:09:05;;;;;;;7.55;2.03;;;;;;;16.81;100.00;100850.03;4911820;29;20027;-75
2023/07/13 06:11:31;;;;;;;6.95;2.05;;;;;;;16.85;100.00;100846.22;4930535;28;21174;-75
2023/07/13 06:13:56;;;;;;;5.22;1.73;;;;;;;16.85;100.00;100848.19;4943263;29;20039;-75
2023/07/13 06:16:22;;;;;;;8.35;2.00;;;;;;;16.90;100.00;100842.44;4927499;28;20035;-75
2023/07/13 06:18:47;;;;;;;5.20;1.80;;;;;;;16.93;100.00;100855.78;4911954;29;20030;-75
2023/07/13 06:21:19;;;;;;;4.40;1.85;;;;;;;16.96;100.00;100849.53;4942339;28;20042;-75
2023/07/13 06:23:45;;;;;;;4.22;1.58;;;;;;;17.00;100.00;100853.34;4953272;29;20039;-74
2023/07/13 06:26:10;;;;;;;4.30;1.80;;;;;;;17.05;100.00;100853.19;4943624;28;20031;-75
2023/07/13 06:28:36;;;;;;;6.40;2.03;;;;;;;17.09;100.00;100854.16;4920822;29;20042;-75
2023/07/13 06:31:02;;;;;;;8.52;2.45;;;;;;;17.12;100.00;100853.50;4943120;29;20066;-74
2023/07/13 06:33:27;;;;;;;6.88;1.83;;;;;;;17.18;100.00;100862.56;4918307;29;20035;-75
2023/07/13 06:35:54;;;;;;;7.25;1.77;;;;;;;17.24;100.00;100866.03;4953230;28;20026;-75
2023/07/13 06:38:20;;;;;;;8.50;2.20;;;;;;;17.28;100.00;100869.84;4950093;29;20484;-75
2023/07/13 06:40:45;;;;;;;5.72;2.30;;;;;;;17.32;100.00;100865.22;4926929;29;20043;-75
2023/07/13 06:43:11;;;;;;;4.72;1.58;;;;;;;17.37;100.00;100870.66;4934165;29;20031;-75
2023/07/13 06:45:41;;;;;;;6.07;1.80;;;;;;;17.40;100.00;100872.81;4924384;28;20028;-75
2023/07/13 06:48:07;;;;;;;7.53;2.00;;;;;;;17.43;100.00;100875.78;4917933;29;20035;-75
2023/07/13 06:50:33;;;;;;;7.28;1.70;;;;;;;17.48;100.00;100871.16;4955704;28;20437;-74
2023/07/13 06:52:59;;;;;;;5.38;1.88;;;;;;;17.53;100.00;100874.63;4933501;29;20034;-75
2023/07/13 06:55:25;;;;;;;6.60;1.83;;;;;;;17.56;100.00;100873.94;4939727;29;20103;-73
2023/07/13 06:57:50;;;;;;;5.55;2.10;;;;;;;17.61;100.00;100878.59;4933127;29;20118;-74
2023/07/13 07:00:16;;;;;;;7.25;2.30;;;;;;;17.67;100.00;100876.44;4942449;29;20046;-74
2023/07/13 07:02:42;;;;;;;7.25;2.00;;;;;;;17.70;100.00;100889.81;4933524;29;20102;-74
2023/07/13 07:05:07;;;;;;;5.43;1.90;;;;;;;17.75;100.00;100886.81;4942306;28;20051;-74
2023/07/13 07:07:32;;;;;;;7.20;2.33;;;;;;;17.78;100.00;100887.00;4961485;28;20035;-75
2023/07/13 07:09:58;;;;;;;7.13;2.00;;;;;;;17.83;100.00;100889.63;4945629;28;20439;-74
2023/07/13 07:12:23;;;;;;;6.13;2.00;;;;;;;17.88;100.00;100885.81;4951048;29;20042;-74
2023/07/13 07:14:49;;;;;;;6.00;1.98;;;;;;;17.92;100.00;100894.41;4942051;29;20035;-74
2023/07/13 07:17:14;;;;;;;8.10;1.80;;;;;;;17.97;100.00;100897.88;4917832;29;20031;-74
2023/07/13 07:19:41;;;;;;;6.72;2.22;;;;;;;18.03;100.00;100895.72;4939211;29;20395;-74
2023/07/13 07:22:06;;;;;;;8.48;2.40;;;;;;;18.07;100.00;100903.13;4933498;29;20063;-74
2023/07/13 07:24:32;;;;;;;4.78;1.63;;;;;;;18.13;100.00;100897.31;4926431;29;20030;-74
2023/07/13 07:26:57;;;;;;;7.13;2.03;;;;;;;18.18;100.00;100903.56;4952653;28;20038;-74
2023/07/13 07:29:26;;;;;;;6.90;1.90;;;;;;;18.24;100.00;100907.03;4912569;29;20082;-74
2023/07/13 07:31:51;;;;;;;7.43;2.10;;;;;;;18.26;100.00;100913.97;4919578;28;20046;-74
2023/07/13 07:34:17;;;;;;;9.57;2.05;;;;;;;18.30;100.00;100912.16;4939932;29;20024;-74
2023/07/13 07:36:42;;;;;;;6.95;1.90;;;;;;;18.35;100.00;100913.94;4926197;28;20031;-74
2023/07/13 07:39:08;;;;;;;5.75;2.22;;;;;;;18.39;100.00;100926.16;4954707;28;20035;-74
2023/07/13 07:41:35;;;;;;;5.43;1.65;;;;;;;18.44;100.00;100919.50;4942109;29;20039;-74
2023/07/13 07:44:01;;;;;;;5.60;1.88;;;;;;;18.47;100.00;100919.69;4924232;29;20035;-74
2023/07/13 07:46:27;;;;;;;6.38;1.92;;;;;;;18.51;100.00;100923.47;4905315;29;20094;-74
2023/07/13 07:48:53;;;;;;;6.78;2.15;;;;;;;18.58;100.00;100927.72;4941318;28;20031;-74
2023/07/13 07:51:18;;;;;;;4.68;1.80;;;;;;;18.60;100.00;100917.78;4927334;28;20033;-74
2023/07/13 07:53:44;;;;;;;7.40;1.92;;;;;;;18.65;100.00;100919.59;4957357;28;20484;-74
2023/07/13 07:56:10;;;;;;;9.00;2.30;;;;;;;18.69;100.00;100921.41;4951757;29;20032;-74
2023/07/13 07:58:37;;;;;;;7.90;2.10;;;;;;;18.74;100.00;100928.84;4922805;29;20471;-74
2023/07/13 08:01:07;;;;;;;9.30;2.42;;;;;;;18.82;100.00;100921.53;4935745;28;20062;-74
2023/07/13 08:03:32;;;;;;;6.05;2.17;;;;;;;18.88;100.00;100918.16;4945286;28;20055;-74
2023/07/13 08:05:58;;;;;;;4.90;1.85;;;;;;;18.96;100.00;100922.91;4949283;29;20031;-74
2023/07/13 08:08:24;;;;;;;7.30;1.98;;;;;;;19.04;100.00;100921.22;4926007;29;20035;-75
2023/07/13 08:10:49;;;;;;;6.97;1.98;;;;;;;19.13;100.00;100923.97;4915939;28;20432;-74
2023/07/13 08:13:14;;;;;;;7.40;2.30;;;;;;;19.23;100.00;100920.75;4938305;29;20443;-74
2023/07/13 08:15:40;;;;;;;5.93;2.30;;;;;;;19.37;100.00;100923.28;4926152;29;20038;-74
2023/07/13 08:18:07;;;;;;;6.45;2.15;;;;;;;19.50;100.00;100919.38;4959687;28;20062;-74
2023/07/13 08:20:33;;;;;;;9.20;2.58;;;;;;;19.62;100.00;100924.25;4962815;28;20038;-74
2023/07/13 08:22:58;;;;;;;4.70;2.08;;;;;;;19.75;100.00;100919.50;4945467;29;20432;-74
2023/07/13 08:25:24;;;;;;;12.10;2.72;;;;;;;19.91;100.00;100925.31;4937765;29;20078;-75
2023/07/13 08:27:49;;;;;;;7.47;2.38;;;;;;;20.03;100.00;100920.53;4926411;29;20026;-75
2023/07/13 08:30:15;;;;;;;10.30;2.33;;;;;;;20.18;100.00;100919.03;4962458;28;20086;-74
2023/07/13 08:32:41;;;;;;;8.95;2.55;;;;;;;20.31;100.00;100917.91;4929492;29;20054;-75
2023/07/13 08:35:06;;;;;;;11.38;2.45;;;;;;;20.45;100.00;100913.94;4915193;28;20369;-75
2023/07/13 08:37:32;;;;;;;7.28;2.17;;;;;;;20.60;100.00;100921.72;4930756;29;20062;-75
2023/07/13 08:39:57;;;;;;;9.82;2.08;;;;;;;20.77;100.00;100917.00;4916821;28;20023;-75
2023/07/13 08:42:33;;;;;;;8.98;2.00;;;;;;;20.91;100.00;100912.63;4954504;29;20439;-75
2023/07/13 08:45:01;;;;;;;8.68;2.00;;;;;;;21.08;100.00;100911.53;4962137;28;20035;-75
2023/07/13 08:47:27;;;;;;;7.85;2.03;;;;;;;21.30;100.00;100912.22;4966917;28;20039;-75
2023/07/13 08:49:53;;;;;;;6.78;1.77;;;;;;;21.54;100.00;100906.53;4936531;29;20039;-75
2023/07/13 08:52:38;;;;;;;8.88;1.98;;;;;;;21.81;100.00;100910.53;4945127;29;20452;-75
2023/07/13 08:55:13;;;;;;;6.35;1.63;;;;;;;22.10;100.00;100908.47;4923373;28;20635;-75
2023/07/13 08:57:39;;;;;;;6.13;1.60;;;;;;;22.35;100.00;100909.16;4913616;29;20479;-75
2023/07/13 09:00:05;;;;;;;3.97;1.40;;;;;;;22.64;100.00;100909.88;4930582;28;20039;-75
2023/07/13 09:02:46;;;;;;;5.85;1.85;;;;;;;22.95;100.00;100909.84;4958433;28;20037;-75
2023/07/13 09:05:15;;;;;;;5.57;1.50;;;;;;;23.29;100.00;100913.06;4948585;28;20155;-75
2023/07/13 09:07:55;;;;;;;4.45;1.67;;;;;;;23.55;100.00;100900.25;4945064;29;20575;-75
2023/07/13 09:10:28;;;;;;;4.82;1.67;;;;;;;23.78;100.00;100903.19;4931794;29;20501;-75
2023/07/13 09:13:12;;;;;;;;;;;;;;;23.97;100.00;100905.16;4931326;28;20031;-75
2023/07/13 09:15:43;;;;;;;5.50;1.73;;;;;;;24.15;100.00;100908.34;4928700;29;19910;-76
2023/07/13 09:18:11;;;;;;;6.50;1.77;;;;;;;24.27;100.00;100908.16;4942091;29;20031;-75
2023/07/13 09:20:56;;;;;;;6.95;1.75;;;;;;;24.35;100.00;100903.41;4931951;28;20027;-75
2023/07/13 09:23:23;;;;;;;7.20;1.77;;;;;;;24.50;98.45;100905.34;4932246;29;20477;-76
2023/07/13 09:25:54;;;;;;;6.07;1.70;;;;;;;24.64;95.51;100901.94;4962658;28;20480;-76
2023/07/13 09:28:27;;;;;;;8.13;1.63;;;;;;;24.81;94.89;100901.38;4933777;28;20069;-75
2023/07/13 09:30:58;;;;;;;4.82;1.40;;;;;;;24.98;93.98;100897.19;4931068;28;20308;-75
2023/07/13 09:33:28;;;;;;;2.87;1.03;;;;;;;25.12;94.65;100897.38;4944400;29;20035;-76
2023/07/13 09:35:54;;;;;;;4.40;1.30;;;;;;;25.26;92.94;100895.97;4929621;29;20045;-76
2023/07/13 09:38:21;;;;;;;4.60;1.33;;;;;;;25.43;90.88;100901.06;4971812;28;20034;-76
2023/07/13 09:40:48;;;;;;;5.53;1.27;;;;;;;25.54;90.09;100896.34;4930409;29;20460;-76
2023/07/13 09:43:14;;;;;;;5.88;1.38;;;;;;;25.76;88.17;100903.09;4952172;29;20039;-76
2023/07/13 09:45:40;;;;;;;4.95;1.23;;;;;;;25.94;85.59;100897.66;4941394;28;20157;-76
2023/07/13 09:48:15;;;;;;;4.90;1.20;;;;;;;26.15;82.12;100896.25;4934400;29;20043;-76
2023/07/13 09:50:41;;;;;;;4.43;1.40;;;;;;;26.34;82.06;100893.16;4944193;29;20046;-76
2023/07/13 09:53:15;;;;;;;3.92;0.95;;;;;;;26.59;78.82;100889.75;4919919;29;20055;-76
2023/07/13 09:55:41;;;;;;;3.13;1.17;;;;;;;26.85;77.79;100895.22;4940901;29;20035;-76
2023/07/13 09:58:19;;;;;;;5.82;1.20;;;;;;;27.08;71.62;100892.16;4920981;29;20062;-76
2023/07/13 10:01:02;;;;;;;2.45;1.02;;;;;;;27.32;72.43;100896.34;4968064;28;20119;-76
2023/07/13 10:03:37;;;;;;;2.90;1.00;;;;;;;27.51;67.46;100895.22;4963929;28;20437;-75
2023/07/13 10:06:14;;;;;;;4.45;1.20;;;;;;;27.62;64.85;100893.25;4960898;28;20031;-76
2023/07/13 10:08:40;;;;;;;4.30;1.30;;;;;;;27.66;62.73;100903.84;4960721;28;20393;-76
2023/07/13 10:11:18;;;;;;;2.60;0.88;;;;;;;27.69;63.00;100906.69;4942978;28;20034;-76
2023/07/13 10:14:14;;;;;;;3.72;1.15;;;;;;;27.73;64.41;100904.69;4941206;29;20098;-76
2023/07/13 10:16:41;;;;;;;5.82;1.15;;;;;;;27.70;63.29;100910.41;4940965;28;20050;-76
2023/07/13 10:19:22;;;;;;;2.60;1.10;;;;;;;27.64;61.04;100907.13;4919528;29;20041;-76
2023/07/13 10:21:55;;;;;;;2.53;1.00;;;;;;;27.56;60.13;100914.00;4952177;28;20127;-76
2023/07/13 10:24:22;;;;;;;2.40;1.00;;;;;;;27.45;58.83;100907.44;4979672;28;20431;-76
2023/07/13 10:27:17;;;;;;;5.95;1.23;;;;;;;27.37;61.84;100900.88;4943086;29;20031;-75
2023/07/13 10:29:48;;;;;;;3.28;1.13;;;;;;;27.27;59.63;100898.78;4920701;28;20051;-76
2023/07/13 10:32:14;;;;;;;3.75;1.20;;;;;;;27.17;62.60;100895.47;4957489;28;20063;-76
2023/07/13 10:34:44;;;;;;;4.32;1.30;;;;;;;27.05;60.48;100906.34;4977510;28;20030;-76
2023/07/13 10:37:28;;;;;;;3.10;1.08;;;;;;;27.07;64.53;100903.94;4962340;28;20122;-76
2023/07/13 10:39:55;;;;;;;3.53;1.15;;;;;;;27.03;62.17;100900.25;4979151;28;20038;-75
2023/07/13 10:42:43;;;;;;;3.28;1.20;;;;;;;27.15;64.37;100899.91;4943665;28;20384;-76
2023/07/13 10:45:20;;;;;;;3.85;1.08;;;;;;;27.28;58.85;100904.09;4946144;28;20382;-76
2023/07/13 10:47:45;;;;;;;2.05;0.98;;;;;;;27.40;58.63;100903.72;4947819;28;20034;-76
2023/07/13 10:50:20;;;;;;;2.50;1.10;;;;;;;27.56;59.49;100905.44;4930398;28;20031;-76
2023/07/13 10:52:50;;;;;;;3.78;1.15;;;;;;;27.70;58.83;100902.66;4942336;29;20043;-77
2023/07/13 10:55:35;;;;;;;2.38;1.00;;;;;;;27.89;56.07;100900.69;4939866;28;20035;-76
2023/07/13 10:58:28;;;;;;;4.78;1.20;;;;;;;28.08;54.79;100894.59;4977742;28;20034;-76
2023/07/13 11:01:05;;;;;;;4.25;1.50;;;;;;;28.28;54.43;100883.66;4930929;29;20070;-75
2023/07/13 11:03:43;;;;;;;3.45;1.15;;;;;;;28.39;53.12;100890.19;4961377;28;20125;-75
2023/07/13 11:06:41;;;;;;;3.25;1.25;;;;;;;28.55;50.32;100886.13;4959726;28;20499;-76
2023/07/13 11:09:21;;;;;;;3.55;1.30;;;;;;;28.66;51.78;100886.94;4957432;28;20065;-76
2023/07/13 11:11:47;;;;;;;4.88;1.33;;;;;;;28.70;52.02;100887.75;4963480;28;20045;-76
2023/07/13 11:14:38;;;;;;;3.15;1.38;;;;;;;28.73;50.41;100882.03;4942069;29;20031;-76
2023/07/13 11:17:32;;;;;;;3.20;1.60;;;;;;;28.80;50.09;100886.91;4947508;29;20213;-76
2023/07/13 11:20:12;;;;;;;3.42;1.42;;;;;;;28.80;49.76;100881.19;4971423;28;20031;-75
2023/07/13 11:22:50;;;;;;;4.30;1.60;;;;;;;28.85;49.71;100889.34;4945710;28;20049;-76